メインページ
METAR-TAF:

METAR-TAF

空港 :

コペンハーゲン, デンマーク

コペンハーゲン空港

緯度: 55-37N, 経度: 012-39E, 海抜: 5m

現時点の気象観測

当レポートは18分前の10:20(UTC)に作成
北西の風 17kt
気温 5°C
湿度 81%
気圧 997 hPa
視程10km以上
高度1800ftの雲はほとんどない
高度2100ftの千切れ雲あり

METAR: EKCH 191020Z 31017KT 9999 FEW018 BKN021 05/02 Q0997 TEMPO 320/20G30KT SCT020CB

時間: 11:38 (10:38 UTC)

予報

当レポートは5時間43分前の04:55(UTC)に作成
予報は19日の 06時(UTC)から 20日の 06時(UTC)まで有効
西の風 15kt
視程10km以上
高度3000ftの雲は散在している
19日の 06時(UTC)から 19日の 12時(UTC)まで一時的に
高度1400ftの千切れ雲あり
高度2000ftの雲は散在している, 積乱雲.
にわか雨
19日の 10時(UTC)から 19日の 12時(UTC)まで徐々に
北/北西の風 15kt
19日の 12時(UTC)から 19日の 18時(UTC)まで一時的に
北/北西の風 18kt、最大28ktの突風を伴う
高度1200ftの千切れ雲あり
高度2000ftの雲は散在している, 積乱雲.
にわか雨
確率 40%
19日の 12時(UTC)から 19日の 18時(UTC)まで
にわか雨, 雪
19日の 20時(UTC)から 19日の 23時(UTC)まで徐々に
西の風 7kt

TAF: EKCH 190455Z 1906/2006 26015KT 9999 SCT030 TEMPO 1906/1912 SHRA BKN014 SCT020CB BECMG 1910/1912 33015KT TEMPO 1912/1918 34018G28KT SHRA BKN012 SCT020CB PROB40 1912/1918 SHRASN BECMG 1920/1923 26007KT

4,000以上の空港の気象観測と天気予報(METAR報とTAF報)

利用可能な観測所は地図上に黄色い丸と赤い丸で示す。

丸の上にカーソルを重ねると観測所名を参照できる。

次にクリックすると気象観測と天気予報を参照できる。

マップの切り替え:黒色「×」印の緑ボタンをクリックして拡大、「-」印の緑ボタンをクリックして縮小、緑色の三角印をクリックして隣りの地図に切り替え


METAR-TAF: